createdAt,value
2022-12-04T00:03:49.949Z,90.69
2022-12-04T00:09:21.796Z,91.08
2022-12-04T00:15:23.821Z,92.12
2022-12-04T00:20:25.871Z,92.02
2022-12-04T00:25:59.140Z,93.80
2022-12-04T00:31:31.562Z,92.56
2022-12-04T00:37:03.571Z,91.04
2022-12-04T00:42:35.320Z,92.52
2022-12-04T00:48:10.005Z,93.33
2022-12-04T00:53:47.598Z,93.43
2022-12-04T00:59:19.569Z,92.03
2022-12-04T01:04:51.514Z,91.57
2022-12-04T01:10:23.396Z,92.22
2022-12-04T01:15:58.836Z,90.98
2022-12-04T01:21:30.740Z,92.29
2022-12-04T01:27:02.788Z,93.92
2022-12-04T01:32:34.676Z,91.96
2022-12-04T01:38:06.672Z,91.49
2022-12-04T01:43:38.573Z,91.45
2022-12-04T01:49:10.759Z,90.98
2022-12-04T01:54:42.495Z,93.15
2022-12-04T02:00:20.120Z,91.93
2022-12-04T02:05:51.849Z,92.50
2022-12-04T02:11:23.672Z,94.22
2022-12-04T02:16:55.541Z,94.85
2022-12-04T02:22:27.207Z,95.51
2022-12-04T02:27:58.912Z,95.52
2022-12-04T02:33:30.828Z,94.74
2022-12-04T02:39:02.629Z,95.15
2022-12-04T02:44:40.246Z,95.58
2022-12-04T02:50:12.091Z,94.09
2022-12-04T02:55:49.854Z,95.21
2022-12-04T03:01:27.828Z,95.10
2022-12-04T03:06:59.177Z,92.63
2022-12-04T03:12:37.287Z,92.11
2022-12-04T03:18:09.177Z,90.94
2022-12-04T03:23:40.730Z,91.58
2022-12-04T03:29:13.935Z,90.90
2022-12-04T03:34:51.888Z,92.80
2022-12-04T03:40:23.880Z,92.82
2022-12-04T03:45:55.769Z,93.22
2022-12-04T03:51:27.084Z,91.63
2022-12-04T03:56:59.189Z,91.76
2022-12-04T04:02:31.628Z,92.60
2022-12-04T04:08:04.224Z,92.44
2022-12-04T04:13:35.944Z,93.06
2022-12-04T04:19:07.768Z,92.86
2022-12-04T04:24:41.309Z,91.48
2022-12-04T04:30:15.413Z,91.57
2022-12-04T04:35:47.111Z,91.92
2022-12-04T04:41:19.175Z,92.26
2022-12-04T04:46:51.363Z,92.98
2022-12-04T04:52:22.993Z,92.10
2022-12-04T04:57:55.009Z,92.76
2022-12-04T05:03:27.265Z,92.00
2022-12-04T05:08:58.999Z,92.18
2022-12-04T05:14:30.876Z,92.20
2022-12-04T05:20:03.072Z,91.54
2022-12-04T05:25:34.951Z,92.01
2022-12-04T05:31:07.325Z,91.77
2022-12-04T05:36:39.315Z,91.77
2022-12-04T05:42:11.014Z,90.87
2022-12-04T05:47:43.923Z,92.11
2022-12-04T05:53:15.871Z,92.23
2022-12-04T05:58:48.262Z,92.10
2022-12-04T06:04:19.844Z,92.05
2022-12-04T06:09:51.438Z,93.04
2022-12-04T06:15:23.606Z,93.15
2022-12-04T06:20:55.779Z,93.43
2022-12-04T06:31:59.390Z,93.09
2022-12-04T06:37:31.287Z,92.49
2022-12-04T06:43:03.380Z,91.89
2022-12-04T06:48:35.061Z,92.59
2022-12-04T06:54:06.911Z,92.79
2022-12-04T06:59:40.144Z,93.27
2022-12-04T07:05:12.068Z,93.71
2022-12-04T07:10:43.918Z,93.60
2022-12-04T07:16:15.946Z,94.85
2022-12-04T07:23:59.482Z,93.08
2022-12-04T07:29:31.315Z,91.98
2022-12-04T07:40:34.726Z,93.44
2022-12-04T07:46:09.112Z,92.33
2022-12-04T07:51:40.873Z,92.27
2022-12-04T07:57:12.559Z,92.65
2022-12-04T08:02:45.007Z,92.60
2022-12-04T08:08:16.838Z,93.20
2022-12-04T08:21:40.712Z,93.26
2022-12-04T08:27:12.160Z,93.49
2022-12-04T08:38:15.694Z,93.79
2022-12-04T08:49:21.660Z,93.90
2022-12-04T08:54:53.479Z,93.44
2022-12-04T09:00:25.238Z,93.66
2022-12-04T09:05:57.042Z,93.71
2022-12-04T09:11:28.903Z,93.95
2022-12-04T09:17:00.790Z,94.99
2022-12-04T09:22:57.881Z,94.67
2022-12-04T09:28:06.680Z,94.04
2022-12-04T09:33:38.629Z,93.09
2022-12-04T09:39:10.681Z,92.79
2022-12-04T09:47:04.042Z,93.68
2022-12-04T09:52:35.935Z,94.16
2022-12-04T09:58:08.051Z,94.33
2022-12-04T10:03:40.296Z,94.02
2022-12-04T10:09:11.886Z,92.53
2022-12-04T10:14:43.716Z,93.29
2022-12-04T10:28:08.612Z,93.56
2022-12-04T10:39:12.244Z,93.11
2022-12-04T10:44:46.505Z,91.79
2022-12-04T10:50:18.091Z,92.19
2022-12-04T11:01:23.837Z,95.00
2022-12-04T11:06:55.613Z,94.89
2022-12-04T11:12:27.235Z,95.03
2022-12-04T11:17:58.930Z,95.46
2022-12-04T11:23:30.843Z,92.75
2022-12-04T11:29:02.697Z,92.36
2022-12-04T11:34:34.274Z,93.10
2022-12-04T11:40:06.202Z,92.97
2022-12-04T11:45:39.794Z,90.49
2022-12-04T11:51:11.542Z,92.39
2022-12-04T11:56:43.613Z,92.57
2022-12-04T12:02:22.893Z,93.11
2022-12-04T12:08:02.798Z,92.98
2022-12-04T12:13:37.763Z,94.31
2022-12-04T12:19:15.324Z,93.79
2022-12-04T12:24:53.145Z,93.91
2022-12-04T12:30:30.599Z,93.96
2022-12-04T12:36:08.823Z,93.47
2022-12-04T12:41:40.869Z,93.11
2022-12-04T12:47:18.313Z,92.60
2022-12-04T12:52:50.394Z,92.88
2022-12-04T12:58:22.097Z,92.81
2022-12-04T13:04:02.322Z,92.06
2022-12-04T13:09:34.012Z,93.25
2022-12-04T13:15:11.961Z,93.59
2022-12-04T13:22:50.611Z,92.57
2022-12-04T13:28:28.489Z,93.89
2022-12-04T13:33:59.906Z,93.95
2022-12-04T13:39:38.230Z,93.69
2022-12-04T13:45:16.310Z,94.23
2022-12-04T13:50:48.247Z,93.53
2022-12-04T13:56:20.207Z,93.41
2022-12-04T14:01:52.196Z,93.63
2022-12-04T14:07:23.935Z,94.11
2022-12-04T14:12:55.600Z,93.60
2022-12-04T14:18:27.061Z,93.19
2022-12-04T14:23:59.010Z,93.68
2022-12-04T14:29:30.316Z,93.78
2022-12-04T14:35:01.558Z,94.18
2022-12-04T14:40:32.786Z,93.90
2022-12-04T14:46:04.545Z,93.55
2022-12-04T14:51:35.706Z,93.34
2022-12-04T14:57:07.885Z,93.56
2022-12-04T15:02:39.759Z,93.31
2022-12-04T15:08:11.467Z,93.35
2022-12-04T15:13:43.423Z,93.43
2022-12-04T15:19:21.290Z,93.41
2022-12-04T15:24:53.224Z,93.49
2022-12-04T15:30:24.806Z,93.65
2022-12-04T15:35:56.596Z,93.54
2022-12-04T15:41:28.400Z,93.89
2022-12-04T15:47:06.127Z,93.42
2022-12-04T15:52:43.810Z,93.57
2022-12-04T15:58:21.272Z,93.84
2022-12-04T16:03:58.959Z,93.73
2022-12-04T16:09:36.668Z,93.95
2022-12-04T16:15:13.748Z,94.06
2022-12-04T16:20:51.548Z,94.10
2022-12-04T16:26:23.485Z,94.19
2022-12-04T16:31:59.615Z,94.26
2022-12-04T16:37:32.530Z,94.23
2022-12-04T16:43:10.241Z,94.29
2022-12-04T16:48:41.979Z,93.75
2022-12-04T16:54:13.916Z,93.79
2022-12-04T16:59:45.732Z,93.94
2022-12-04T17:05:17.659Z,93.72
2022-12-04T17:10:49.673Z,93.76
2022-12-04T17:16:21.994Z,93.64
2022-12-04T17:21:53.942Z,93.54
2022-12-04T17:27:26.060Z,93.53
2022-12-04T17:32:57.925Z,93.25
2022-12-04T17:38:29.736Z,93.31
2022-12-04T17:44:01.663Z,93.27
2022-12-04T17:49:33.431Z,93.26
2022-12-04T17:55:06.897Z,93.06
2022-12-04T18:00:37.912Z,92.87
2022-12-04T18:06:09.096Z,92.85
2022-12-04T18:11:40.668Z,92.65
2022-12-04T18:17:12.691Z,92.65
2022-12-04T18:22:44.638Z,92.52
2022-12-04T18:28:16.328Z,92.42
2022-12-04T18:33:48.094Z,92.44
2022-12-04T18:39:19.840Z,92.36
2022-12-04T18:44:52.002Z,92.30
2022-12-04T18:50:23.472Z,92.10
2022-12-04T18:55:54.867Z,92.11
2022-12-04T19:01:26.596Z,91.88
2022-12-04T19:06:57.957Z,91.83
2022-12-04T19:12:30.194Z,91.80
2022-12-04T19:18:02.224Z,91.83
2022-12-04T19:23:34.023Z,91.69
2022-12-04T19:29:06.015Z,91.37
2022-12-04T19:34:38.137Z,90.95
2022-12-04T19:40:09.884Z,90.95
2022-12-04T19:45:41.882Z,90.14
2022-12-04T19:51:13.886Z,90.39
2022-12-04T19:56:45.824Z,90.55
2022-12-04T20:02:18.116Z,90.68
2022-12-04T20:07:50.445Z,90.60
2022-12-04T20:13:22.737Z,90.48
2022-12-04T20:18:54.615Z,90.50
2022-12-04T20:24:26.805Z,90.69
2022-12-04T20:30:00.297Z,90.79
2022-12-04T20:35:32.212Z,90.74
2022-12-04T20:41:03.903Z,90.71
2022-12-04T20:46:35.954Z,90.77
2022-12-04T20:52:07.916Z,90.36
2022-12-04T20:57:39.514Z,90.39
2022-12-04T21:03:11.694Z,90.36
2022-12-04T21:08:49.816Z,90.31
2022-12-04T21:14:21.868Z,90.30
2022-12-04T21:19:53.858Z,90.08
2022-12-04T21:25:25.779Z,89.95
2022-12-04T21:31:03.343Z,90.12
2022-12-04T21:36:34.988Z,90.18
2022-12-04T21:42:06.455Z,89.99
2022-12-04T21:47:37.986Z,89.97
2022-12-04T21:53:16.236Z,89.60
2022-12-04T21:58:48.051Z,89.72
2022-12-04T22:04:20.018Z,89.63
2022-12-04T22:09:57.958Z,89.72
2022-12-04T22:15:35.761Z,89.87
2022-12-04T22:21:07.245Z,89.91
2022-12-04T22:26:44.643Z,89.94
2022-12-04T22:32:16.617Z,90.11
2022-12-04T22:37:54.387Z,90.23
2022-12-04T22:43:36.314Z,90.14
2022-12-04T22:49:09.668Z,90.00
2022-12-04T22:54:41.516Z,89.81
2022-12-04T23:00:13.322Z,89.89
2022-12-04T23:05:45.323Z,89.76
2022-12-04T23:11:23.133Z,89.95
2022-12-04T23:16:55.024Z,90.06
2022-12-04T23:22:26.636Z,90.03
2022-12-04T23:27:58.819Z,89.97
2022-12-04T23:39:06.250Z,89.56
2022-12-04T23:44:37.943Z,89.75
2022-12-04T23:50:15.754Z,89.75
2022-12-04T23:55:47.350Z,89.84
